sensor_id;sensor_type;location;lat;lon;timestamp;P1;durP1;ratioP1;P2;durP2;ratioP2
66429;SDS011;53242;51.694;10.006;2022-11-18T00:01:07;26.30;;;8.65;;
66429;SDS011;53242;51.694;10.006;2022-11-18T00:03:31;24.13;;;8.13;;
66429;SDS011;53242;51.694;10.006;2022-11-18T00:05:54;21.55;;;7.03;;
66429;SDS011;53242;51.694;10.006;2022-11-18T00:08:18;28.45;;;9.20;;
66429;SDS011;53242;51.694;10.006;2022-11-18T00:10:40;31.60;;;9.95;;
66429;SDS011;53242;51.694;10.006;2022-11-18T00:13:03;24.27;;;8.45;;
66429;SDS011;53242;51.694;10.006;2022-11-18T00:15:44;29.63;;;8.80;;
66429;SDS011;53242;51.694;10.006;2022-11-18T00:18:06;23.52;;;7.90;;
66429;SDS011;53242;51.694;10.006;2022-11-18T00:20:29;29.58;;;9.05;;
66429;SDS011;53242;51.694;10.006;2022-11-18T00:22:51;29.40;;;9.40;;
66429;SDS011;53242;51.694;10.006;2022-11-18T00:25:14;23.73;;;7.72;;
66429;SDS011;53242;51.694;10.006;2022-11-18T00:27:36;30.58;;;8.95;;
66429;SDS011;53242;51.694;10.006;2022-11-18T00:29:58;25.63;;;7.68;;
66429;SDS011;53242;51.694;10.006;2022-11-18T00:32:21;23.23;;;7.50;;
66429;SDS011;53242;51.694;10.006;2022-11-18T00:34:43;24.17;;;7.38;;
66429;SDS011;53242;51.694;10.006;2022-11-18T00:37:06;25.02;;;7.55;;
66429;SDS011;53242;51.694;10.006;2022-11-18T00:39:28;24.45;;;8.35;;
66429;SDS011;53242;51.694;10.006;2022-11-18T00:41:50;29.67;;;9.15;;
66429;SDS011;53242;51.694;10.006;2022-11-18T00:44:31;25.33;;;7.35;;
66429;SDS011;53242;51.694;10.006;2022-11-18T00:46:54;22.92;;;7.28;;
66429;SDS011;53242;51.694;10.006;2022-11-18T00:49:17;26.70;;;8.52;;
66429;SDS011;53242;51.694;10.006;2022-11-18T00:51:39;28.27;;;9.23;;
66429;SDS011;53242;51.694;10.006;2022-11-18T00:54:02;25.83;;;8.13;;
66429;SDS011;53242;51.694;10.006;2022-11-18T00:56:25;20.60;;;7.13;;
66429;SDS011;53242;51.694;10.006;2022-11-18T00:58:47;24.15;;;8.05;;
66429;SDS011;53242;51.694;10.006;2022-11-18T01:01:10;21.70;;;7.35;;
66429;SDS011;53242;51.694;10.006;2022-11-18T01:03:32;23.05;;;7.18;;
66429;SDS011;53242;51.694;10.006;2022-11-18T01:05:55;23.85;;;7.68;;
66429;SDS011;53242;51.694;10.006;2022-11-18T01:08:17;22.70;;;7.40;;
66429;SDS011;53242;51.694;10.006;2022-11-18T01:10:40;24.63;;;8.00;;
66429;SDS011;53242;51.694;10.006;2022-11-18T01:13:03;21.17;;;6.68;;
66429;SDS011;53242;51.694;10.006;2022-11-18T01:15:43;21.77;;;6.32;;
66429;SDS011;53242;51.694;10.006;2022-11-18T01:18:06;18.13;;;5.07;;
66429;SDS011;53242;51.694;10.006;2022-11-18T01:20:30;27.60;;;8.10;;
66429;SDS011;53242;51.694;10.006;2022-11-18T01:25:16;23.10;;;6.87;;
66429;SDS011;53242;51.694;10.006;2022-11-18T01:27:38;22.08;;;7.15;;
66429;SDS011;53242;51.694;10.006;2022-11-18T01:30:02;22.67;;;7.90;;
66429;SDS011;53242;51.694;10.006;2022-11-18T01:32:24;19.90;;;6.75;;
66429;SDS011;53242;51.694;10.006;2022-11-18T01:34:47;21.52;;;6.97;;
66429;SDS011;53242;51.694;10.006;2022-11-18T01:37:09;23.15;;;7.22;;
66429;SDS011;53242;51.694;10.006;2022-11-18T01:39:31;17.85;;;5.88;;
66429;SDS011;53242;51.694;10.006;2022-11-18T01:41:54;25.75;;;7.47;;
66429;SDS011;53242;51.694;10.006;2022-11-18T01:47:17;21.92;;;6.65;;
66429;SDS011;53242;51.694;10.006;2022-11-18T01:49:40;21.42;;;6.90;;
66429;SDS011;53242;51.694;10.006;2022-11-18T01:52:02;17.10;;;5.80;;
66429;SDS011;53242;51.694;10.006;2022-11-18T01:54:26;24.13;;;7.75;;
66429;SDS011;53242;51.694;10.006;2022-11-18T01:56:57;25.50;;;7.80;;
66429;SDS011;53242;51.694;10.006;2022-11-18T01:59:24;21.67;;;7.63;;
66429;SDS011;53242;51.694;10.006;2022-11-18T02:01:48;20.20;;;7.03;;
66429;SDS011;53242;51.694;10.006;2022-11-18T02:04:11;23.63;;;7.50;;
66429;SDS011;53242;51.694;10.006;2022-11-18T02:06:35;25.55;;;8.15;;
66429;SDS011;53242;51.694;10.006;2022-11-18T02:08:57;25.17;;;7.47;;
66429;SDS011;53242;51.694;10.006;2022-11-18T02:11:20;21.88;;;7.25;;
66429;SDS011;53242;51.694;10.006;2022-11-18T02:14:02;22.48;;;7.43;;
66429;SDS011;53242;51.694;10.006;2022-11-18T02:16:39;20.63;;;6.15;;
66429;SDS011;53242;51.694;10.006;2022-11-18T02:22:04;21.58;;;6.95;;
66429;SDS011;53242;51.694;10.006;2022-11-18T02:25:04;22.45;;;7.10;;
66429;SDS011;53242;51.694;10.006;2022-11-18T02:30:41;19.35;;;6.18;;
66429;SDS011;53242;51.694;10.006;2022-11-18T02:33:10;24.42;;;7.28;;
66429;SDS011;53242;51.694;10.006;2022-11-18T02:35:40;21.70;;;7.45;;
66429;SDS011;53242;51.694;10.006;2022-11-18T02:40:51;23.42;;;7.05;;
66429;SDS011;53242;51.694;10.006;2022-11-18T02:43:19;21.73;;;7.30;;
66429;SDS011;53242;51.694;10.006;2022-11-18T02:45:48;23.17;;;7.32;;
66429;SDS011;53242;51.694;10.006;2022-11-18T02:48:13;25.33;;;8.05;;
66429;SDS011;53242;51.694;10.006;2022-11-18T02:50:37;23.30;;;7.63;;
66429;SDS011;53242;51.694;10.006;2022-11-18T02:53:03;21.50;;;7.32;;
66429;SDS011;53242;51.694;10.006;2022-11-18T02:55:29;21.73;;;7.00;;
66429;SDS011;53242;51.694;10.006;2022-11-18T02:57:54;23.50;;;7.60;;
66429;SDS011;53242;51.694;10.006;2022-11-18T03:00:18;23.52;;;7.43;;
66429;SDS011;53242;51.694;10.006;2022-11-18T03:02:41;22.55;;;7.28;;
66429;SDS011;53242;51.694;10.006;2022-11-18T03:08:15;19.00;;;6.47;;
66429;SDS011;53242;51.694;10.006;2022-11-18T03:10:53;16.38;;;5.57;;
66429;SDS011;53242;51.694;10.006;2022-11-18T03:14:15;19.00;;;6.82;;
66429;SDS011;53242;51.694;10.006;2022-11-18T03:16:31;17.70;;;5.68;;
66429;SDS011;53242;51.694;10.006;2022-11-18T03:19:23;17.15;;;5.60;;
66429;SDS011;53242;51.694;10.006;2022-11-18T03:21:55;16.52;;;4.93;;
66429;SDS011;53242;51.694;10.006;2022-11-18T03:24:30;15.95;;;5.60;;
66429;SDS011;53242;51.694;10.006;2022-11-18T03:27:15;19.58;;;5.55;;
66429;SDS011;53242;51.694;10.006;2022-11-18T03:30:02;14.63;;;5.68;;
66429;SDS011;53242;51.694;10.006;2022-11-18T03:32:28;17.50;;;6.45;;
66429;SDS011;53242;51.694;10.006;2022-11-18T03:34:56;18.05;;;6.15;;
66429;SDS011;53242;51.694;10.006;2022-11-18T03:37:23;14.38;;;5.10;;
66429;SDS011;53242;51.694;10.006;2022-11-18T03:39:49;18.73;;;5.85;;
66429;SDS011;53242;51.694;10.006;2022-11-18T03:42:22;15.63;;;5.35;;
66429;SDS011;53242;51.694;10.006;2022-11-18T03:44:56;16.63;;;6.10;;
66429;SDS011;53242;51.694;10.006;2022-11-18T03:47:28;16.52;;;6.18;;
66429;SDS011;53242;51.694;10.006;2022-11-18T03:50:07;16.75;;;5.80;;
66429;SDS011;53242;51.694;10.006;2022-11-18T03:52:42;20.63;;;6.75;;
66429;SDS011;53242;51.694;10.006;2022-11-18T03:55:08;16.80;;;6.25;;
66429;SDS011;53242;51.694;10.006;2022-11-18T03:58:17;17.67;;;5.78;;
66429;SDS011;53242;51.694;10.006;2022-11-18T04:00:30;17.25;;;6.13;;
66429;SDS011;53242;51.694;10.006;2022-11-18T04:02:58;16.10;;;5.93;;
66429;SDS011;53242;51.694;10.006;2022-11-18T04:05:20;14.15;;;5.10;;
66429;SDS011;53242;51.694;10.006;2022-11-18T04:07:58;17.25;;;6.10;;
66429;SDS011;53242;51.694;10.006;2022-11-18T04:10:26;16.10;;;5.72;;
66429;SDS011;53242;51.694;10.006;2022-11-18T04:13:14;16.83;;;5.88;;
66429;SDS011;53242;51.694;10.006;2022-11-18T04:15:39;16.67;;;6.45;;
66429;SDS011;53242;51.694;10.006;2022-11-18T04:18:03;16.92;;;5.45;;
66429;SDS011;53242;51.694;10.006;2022-11-18T04:20:25;15.82;;;5.88;;
66429;SDS011;53242;51.694;10.006;2022-11-18T04:22:48;15.55;;;4.85;;
66429;SDS011;53242;51.694;10.006;2022-11-18T04:25:10;18.35;;;5.57;;
66429;SDS011;53242;51.694;10.006;2022-11-18T04:27:33;17.88;;;6.47;;
66429;SDS011;53242;51.694;10.006;2022-11-18T04:29:56;19.27;;;6.50;;
66429;SDS011;53242;51.694;10.006;2022-11-18T04:32:18;18.05;;;6.45;;
66429;SDS011;53242;51.694;10.006;2022-11-18T04:34:40;18.88;;;6.45;;
66429;SDS011;53242;51.694;10.006;2022-11-18T04:37:03;17.13;;;5.85;;
66429;SDS011;53242;51.694;10.006;2022-11-18T04:39:25;18.67;;;5.93;;
66429;SDS011;53242;51.694;10.006;2022-11-18T04:41:48;17.77;;;6.28;;
66429;SDS011;53242;51.694;10.006;2022-11-18T04:44:16;17.95;;;6.40;;
66429;SDS011;53242;51.694;10.006;2022-11-18T04:46:39;18.95;;;6.18;;
66429;SDS011;53242;51.694;10.006;2022-11-18T04:49:02;15.70;;;5.60;;
66429;SDS011;53242;51.694;10.006;2022-11-18T04:51:25;16.15;;;6.68;;
66429;SDS011;53242;51.694;10.006;2022-11-18T04:53:47;14.60;;;5.25;;
66429;SDS011;53242;51.694;10.006;2022-11-18T04:56:10;17.65;;;6.30;;
66429;SDS011;53242;51.694;10.006;2022-11-18T04:58:32;16.70;;;5.78;;
66429;SDS011;53242;51.694;10.006;2022-11-18T05:00:54;16.70;;;5.60;;
66429;SDS011;53242;51.694;10.006;2022-11-18T05:03:17;16.55;;;5.82;;
66429;SDS011;53242;51.694;10.006;2022-11-18T05:05:39;13.63;;;5.15;;
66429;SDS011;53242;51.694;10.006;2022-11-18T05:08:02;14.88;;;5.32;;
66429;SDS011;53242;51.694;10.006;2022-11-18T05:10:24;16.27;;;5.78;;
66429;SDS011;53242;51.694;10.006;2022-11-18T05:12:46;18.77;;;6.53;;
66429;SDS011;53242;51.694;10.006;2022-11-18T05:15:13;18.23;;;6.50;;
66429;SDS011;53242;51.694;10.006;2022-11-18T05:17:39;15.15;;;5.85;;
66429;SDS011;53242;51.694;10.006;2022-11-18T05:20:02;17.05;;;6.43;;
66429;SDS011;53242;51.694;10.006;2022-11-18T05:22:24;18.20;;;6.80;;
66429;SDS011;53242;51.694;10.006;2022-11-18T05:24:47;19.58;;;6.97;;
66429;SDS011;53242;51.694;10.006;2022-11-18T05:27:10;24.27;;;10.82;;
66429;SDS011;53242;51.694;10.006;2022-11-18T05:29:33;18.52;;;6.80;;
66429;SDS011;53242;51.694;10.006;2022-11-18T05:31:55;17.10;;;5.60;;
66429;SDS011;53242;51.694;10.006;2022-11-18T05:34:18;18.10;;;6.15;;
66429;SDS011;53242;51.694;10.006;2022-11-18T05:36:40;18.90;;;6.70;;
66429;SDS011;53242;51.694;10.006;2022-11-18T05:39:03;19.90;;;7.60;;
66429;SDS011;53242;51.694;10.006;2022-11-18T05:41:25;18.48;;;6.70;;
66429;SDS011;53242;51.694;10.006;2022-11-18T05:44:06;22.35;;;9.05;;
66429;SDS011;53242;51.694;10.006;2022-11-18T05:46:29;18.70;;;6.72;;
66429;SDS011;53242;51.694;10.006;2022-11-18T05:48:52;19.95;;;6.60;;
66429;SDS011;53242;51.694;10.006;2022-11-18T05:51:15;20.10;;;6.25;;
66429;SDS011;53242;51.694;10.006;2022-11-18T05:53:38;18.17;;;6.50;;
66429;SDS011;53242;51.694;10.006;2022-11-18T05:56:02;20.75;;;5.93;;
66429;SDS011;53242;51.694;10.006;2022-11-18T05:58:36;16.38;;;5.85;;
66429;SDS011;53242;51.694;10.006;2022-11-18T06:01:00;15.13;;;5.32;;
66429;SDS011;53242;51.694;10.006;2022-11-18T06:03:27;12.93;;;5.03;;
66429;SDS011;53242;51.694;10.006;2022-11-18T06:05:53;13.05;;;4.53;;
66429;SDS011;53242;51.694;10.006;2022-11-18T06:08:17;12.52;;;4.43;;
66429;SDS011;53242;51.694;10.006;2022-11-18T06:10:41;11.80;;;4.10;;
66429;SDS011;53242;51.694;10.006;2022-11-18T06:13:05;12.27;;;4.40;;
66429;SDS011;53242;51.694;10.006;2022-11-18T06:15:34;15.25;;;4.90;;
66429;SDS011;53242;51.694;10.006;2022-11-18T06:20:37;12.05;;;4.35;;
66429;SDS011;53242;51.694;10.006;2022-11-18T06:23:02;13.10;;;4.40;;
66429;SDS011;53242;51.694;10.006;2022-11-18T06:25:24;11.52;;;4.10;;
66429;SDS011;53242;51.694;10.006;2022-11-18T06:27:47;12.07;;;4.43;;
66429;SDS011;53242;51.694;10.006;2022-11-18T06:30:11;16.08;;;5.68;;
66429;SDS011;53242;51.694;10.006;2022-11-18T06:32:34;16.30;;;5.32;;
66429;SDS011;53242;51.694;10.006;2022-11-18T06:34:57;14.57;;;5.30;;
66429;SDS011;53242;51.694;10.006;2022-11-18T06:37:19;13.57;;;5.13;;
66429;SDS011;53242;51.694;10.006;2022-11-18T06:39:42;17.65;;;6.03;;
66429;SDS011;53242;51.694;10.006;2022-11-18T06:42:04;16.58;;;5.32;;
66429;SDS011;53242;51.694;10.006;2022-11-18T06:44:27;17.10;;;6.15;;
66429;SDS011;53242;51.694;10.006;2022-11-18T06:46:49;16.75;;;6.13;;
66429;SDS011;53242;51.694;10.006;2022-11-18T06:49:18;18.70;;;6.15;;
66429;SDS011;53242;51.694;10.006;2022-11-18T06:51:40;16.50;;;5.85;;
66429;SDS011;53242;51.694;10.006;2022-11-18T06:54:03;14.45;;;5.57;;
66429;SDS011;53242;51.694;10.006;2022-11-18T06:56:25;17.38;;;5.82;;
66429;SDS011;53242;51.694;10.006;2022-11-18T06:58:51;12.73;;;4.30;;
66429;SDS011;53242;51.694;10.006;2022-11-18T07:01:19;14.02;;;5.28;;
66429;SDS011;53242;51.694;10.006;2022-11-18T07:03:43;17.23;;;7.43;;
66429;SDS011;53242;51.694;10.006;2022-11-18T07:06:07;13.75;;;5.18;;
66429;SDS011;53242;51.694;10.006;2022-11-18T07:08:32;11.20;;;4.63;;
66429;SDS011;53242;51.694;10.006;2022-11-18T07:10:57;13.48;;;4.80;;
66429;SDS011;53242;51.694;10.006;2022-11-18T07:13:19;13.85;;;4.72;;
66429;SDS011;53242;51.694;10.006;2022-11-18T07:15:41;13.48;;;4.32;;
66429;SDS011;53242;51.694;10.006;2022-11-18T07:18:04;11.98;;;4.63;;
66429;SDS011;53242;51.694;10.006;2022-11-18T07:20:26;12.60;;;4.43;;
66429;SDS011;53242;51.694;10.006;2022-11-18T07:22:51;13.77;;;5.30;;
66429;SDS011;53242;51.694;10.006;2022-11-18T07:25:13;14.68;;;4.53;;
66429;SDS011;53242;51.694;10.006;2022-11-18T07:27:36;13.57;;;4.72;;
66429;SDS011;53242;51.694;10.006;2022-11-18T07:29:58;14.02;;;5.13;;
66429;SDS011;53242;51.694;10.006;2022-11-18T07:32:21;14.93;;;4.60;;
66429;SDS011;53242;51.694;10.006;2022-11-18T07:34:43;12.45;;;4.75;;
66429;SDS011;53242;51.694;10.006;2022-11-18T07:37:06;17.38;;;4.90;;
66429;SDS011;53242;51.694;10.006;2022-11-18T07:39:29;12.68;;;4.85;;
66429;SDS011;53242;51.694;10.006;2022-11-18T07:41:51;19.02;;;6.90;;
66429;SDS011;53242;51.694;10.006;2022-11-18T07:44:14;14.63;;;5.05;;
66429;SDS011;53242;51.694;10.006;2022-11-18T07:46:39;15.05;;;4.78;;
66429;SDS011;53242;51.694;10.006;2022-11-18T07:49:03;15.52;;;5.07;;
66429;SDS011;53242;51.694;10.006;2022-11-18T07:51:28;12.48;;;4.72;;
66429;SDS011;53242;51.694;10.006;2022-11-18T07:53:52;13.55;;;4.43;;
66429;SDS011;53242;51.694;10.006;2022-11-18T07:56:14;12.43;;;4.60;;
66429;SDS011;53242;51.694;10.006;2022-11-18T07:58:37;9.07;;;3.33;;
66429;SDS011;53242;51.694;10.006;2022-11-18T08:01:10;12.00;;;4.38;;
66429;SDS011;53242;51.694;10.006;2022-11-18T08:03:40;10.63;;;3.85;;
66429;SDS011;53242;51.694;10.006;2022-11-18T08:06:03;11.45;;;4.38;;
66429;SDS011;53242;51.694;10.006;2022-11-18T08:08:27;11.15;;;4.20;;
66429;SDS011;53242;51.694;10.006;2022-11-18T08:10:49;10.70;;;4.22;;
66429;SDS011;53242;51.694;10.006;2022-11-18T08:13:11;12.77;;;4.30;;
66429;SDS011;53242;51.694;10.006;2022-11-18T08:15:34;10.75;;;3.97;;
66429;SDS011;53242;51.694;10.006;2022-11-18T08:18:00;13.10;;;4.55;;
66429;SDS011;53242;51.694;10.006;2022-11-18T08:20:22;12.25;;;4.30;;
66429;SDS011;53242;51.694;10.006;2022-11-18T08:22:48;11.88;;;4.18;;
66429;SDS011;53242;51.694;10.006;2022-11-18T08:25:10;11.57;;;4.63;;
66429;SDS011;53242;51.694;10.006;2022-11-18T08:27:33;12.50;;;4.40;;
66429;SDS011;53242;51.694;10.006;2022-11-18T08:29:55;10.80;;;4.03;;
66429;SDS011;53242;51.694;10.006;2022-11-18T08:32:17;12.02;;;3.95;;
66429;SDS011;53242;51.694;10.006;2022-11-18T08:34:40;11.10;;;3.75;;
66429;SDS011;53242;51.694;10.006;2022-11-18T08:37:02;11.98;;;4.18;;
66429;SDS011;53242;51.694;10.006;2022-11-18T08:39:25;10.27;;;3.90;;
66429;SDS011;53242;51.694;10.006;2022-11-18T08:41:47;10.45;;;3.80;;
66429;SDS011;53242;51.694;10.006;2022-11-18T08:44:11;15.77;;;5.43;;
66429;SDS011;53242;51.694;10.006;2022-11-18T08:46:35;11.40;;;4.43;;
66429;SDS011;53242;51.694;10.006;2022-11-18T08:48:58;12.90;;;3.85;;
66429;SDS011;53242;51.694;10.006;2022-11-18T08:51:20;10.07;;;3.50;;
66429;SDS011;53242;51.694;10.006;2022-11-18T08:53:43;10.05;;;3.40;;
66429;SDS011;53242;51.694;10.006;2022-11-18T08:56:05;11.65;;;3.90;;
66429;SDS011;53242;51.694;10.006;2022-11-18T08:58:28;10.73;;;3.83;;
66429;SDS011;53242;51.694;10.006;2022-11-18T09:00:51;10.90;;;4.20;;
66429;SDS011;53242;51.694;10.006;2022-11-18T09:03:13;10.50;;;3.58;;
66429;SDS011;53242;51.694;10.006;2022-11-18T09:05:36;10.65;;;3.90;;
66429;SDS011;53242;51.694;10.006;2022-11-18T09:07:58;11.43;;;3.67;;
66429;SDS011;53242;51.694;10.006;2022-11-18T09:10:21;12.07;;;3.67;;
66429;SDS011;53242;51.694;10.006;2022-11-18T09:12:43;9.95;;;3.55;;
66429;SDS011;53242;51.694;10.006;2022-11-18T09:15:06;9.93;;;3.92;;
66429;SDS011;53242;51.694;10.006;2022-11-18T09:17:29;10.50;;;3.60;;
66429;SDS011;53242;51.694;10.006;2022-11-18T09:19:52;11.45;;;4.25;;
66429;SDS011;53242;51.694;10.006;2022-11-18T09:22:14;10.80;;;3.97;;
66429;SDS011;53242;51.694;10.006;2022-11-18T09:24:36;11.65;;;3.85;;
66429;SDS011;53242;51.694;10.006;2022-11-18T09:27:02;9.77;;;3.65;;
66429;SDS011;53242;51.694;10.006;2022-11-18T09:29:26;11.50;;;3.72;;
66429;SDS011;53242;51.694;10.006;2022-11-18T09:31:48;12.98;;;4.35;;
66429;SDS011;53242;51.694;10.006;2022-11-18T09:34:11;15.20;;;5.07;;
66429;SDS011;53242;51.694;10.006;2022-11-18T09:36:33;15.27;;;4.35;;
66429;SDS011;53242;51.694;10.006;2022-11-18T09:38:57;13.43;;;5.05;;
66429;SDS011;53242;51.694;10.006;2022-11-18T09:46:48;16.27;;;5.28;;
66429;SDS011;53242;51.694;10.006;2022-11-18T09:49:30;17.55;;;5.07;;
66429;SDS011;53242;51.694;10.006;2022-11-18T09:52:00;15.32;;;5.18;;
66429;SDS011;53242;51.694;10.006;2022-11-18T09:54:27;14.70;;;4.78;;
66429;SDS011;53242;51.694;10.006;2022-11-18T09:56:53;14.82;;;5.50;;
66429;SDS011;53242;51.694;10.006;2022-11-18T09:59:17;17.63;;;6.00;;
66429;SDS011;53242;51.694;10.006;2022-11-18T10:01:42;15.30;;;4.80;;
66429;SDS011;53242;51.694;10.006;2022-11-18T10:04:10;14.90;;;4.75;;
66429;SDS011;53242;51.694;10.006;2022-11-18T10:06:37;13.60;;;4.70;;
66429;SDS011;53242;51.694;10.006;2022-11-18T10:16:55;14.50;;;4.85;;
66429;SDS011;53242;51.694;10.006;2022-11-18T10:24:32;13.30;;;4.70;;
66429;SDS011;53242;51.694;10.006;2022-11-18T10:27:00;13.75;;;4.65;;
66429;SDS011;53242;51.694;10.006;2022-11-18T10:29:23;13.25;;;4.32;;
66429;SDS011;53242;51.694;10.006;2022-11-18T10:31:54;13.48;;;4.50;;
66429;SDS011;53242;51.694;10.006;2022-11-18T10:34:18;13.98;;;4.55;;
66429;SDS011;53242;51.694;10.006;2022-11-18T10:36:41;14.18;;;4.90;;
66429;SDS011;53242;51.694;10.006;2022-11-18T10:39:07;16.33;;;4.32;;
66429;SDS011;53242;51.694;10.006;2022-11-18T10:41:40;13.07;;;4.22;;
66429;SDS011;53242;51.694;10.006;2022-11-18T10:44:09;11.57;;;3.92;;
66429;SDS011;53242;51.694;10.006;2022-11-18T10:46:48;11.85;;;3.97;;
66429;SDS011;53242;51.694;10.006;2022-11-18T10:49:12;13.38;;;4.22;;
66429;SDS011;53242;51.694;10.006;2022-11-18T10:51:47;10.45;;;3.38;;
66429;SDS011;53242;51.694;10.006;2022-11-18T10:54:35;11.88;;;3.65;;
66429;SDS011;53242;51.694;10.006;2022-11-18T10:57:13;12.60;;;3.75;;
66429;SDS011;53242;51.694;10.006;2022-11-18T11:02:38;14.10;;;4.03;;
66429;SDS011;53242;51.694;10.006;2022-11-18T11:05:03;10.32;;;3.72;;
66429;SDS011;53242;51.694;10.006;2022-11-18T11:07:53;12.43;;;3.60;;
66429;SDS011;53242;51.694;10.006;2022-11-18T11:10:41;12.88;;;3.95;;
66429;SDS011;53242;51.694;10.006;2022-11-18T11:13:16;12.48;;;4.15;;
66429;SDS011;53242;51.694;10.006;2022-11-18T11:15:42;12.95;;;4.22;;
66429;SDS011;53242;51.694;10.006;2022-11-18T11:18:15;12.43;;;4.25;;
66429;SDS011;53242;51.694;10.006;2022-11-18T11:21:00;12.93;;;4.22;;
66429;SDS011;53242;51.694;10.006;2022-11-18T11:23:22;12.60;;;3.80;;
66429;SDS011;53242;51.694;10.006;2022-11-18T11:25:48;14.27;;;4.45;;
66429;SDS011;53242;51.694;10.006;2022-11-18T11:33:26;13.05;;;4.18;;
66429;SDS011;53242;51.694;10.006;2022-11-18T11:36:11;11.35;;;3.90;;
66429;SDS011;53242;51.694;10.006;2022-11-18T11:50:21;15.38;;;5.35;;
66429;SDS011;53242;51.694;10.006;2022-11-18T11:55:45;16.33;;;5.63;;
66429;SDS011;53242;51.694;10.006;2022-11-18T11:58:32;16.92;;;5.10;;
66429;SDS011;53242;51.694;10.006;2022-11-18T12:07:17;12.43;;;4.32;;
66429;SDS011;53242;51.694;10.006;2022-11-18T12:09:45;12.55;;;4.50;;
66429;SDS011;53242;51.694;10.006;2022-11-18T12:14:56;13.05;;;4.13;;
66429;SDS011;53242;51.694;10.006;2022-11-18T12:18:01;14.00;;;4.43;;
66429;SDS011;53242;51.694;10.006;2022-11-18T12:28:09;12.80;;;3.80;;
66429;SDS011;53242;51.694;10.006;2022-11-18T12:30:31;11.20;;;3.50;;
66429;SDS011;53242;51.694;10.006;2022-11-18T12:32:54;11.13;;;3.67;;
66429;SDS011;53242;51.694;10.006;2022-11-18T12:35:22;13.93;;;4.25;;
66429;SDS011;53242;51.694;10.006;2022-11-18T12:43:02;11.48;;;3.47;;
66429;SDS011;53242;51.694;10.006;2022-11-18T12:53:09;12.68;;;3.92;;
66429;SDS011;53242;51.694;10.006;2022-11-18T12:55:51;12.23;;;3.60;;
66429;SDS011;53242;51.694;10.006;2022-11-18T12:58:21;10.85;;;3.35;;
66429;SDS011;53242;51.694;10.006;2022-11-18T13:00:44;10.35;;;3.50;;
66429;SDS011;53242;51.694;10.006;2022-11-18T13:03:19;9.98;;;3.40;;
66429;SDS011;53242;51.694;10.006;2022-11-18T13:05:44;10.23;;;3.30;;
66429;SDS011;53242;51.694;10.006;2022-11-18T13:08:10;10.57;;;3.67;;
66429;SDS011;53242;51.694;10.006;2022-11-18T13:10:34;9.15;;;3.03;;
66429;SDS011;53242;51.694;10.006;2022-11-18T13:13:01;8.35;;;3.50;;
66429;SDS011;53242;51.694;10.006;2022-11-18T13:15:24;8.40;;;3.00;;
66429;SDS011;53242;51.694;10.006;2022-11-18T13:18:16;8.63;;;2.95;;
66429;SDS011;53242;51.694;10.006;2022-11-18T13:20:41;6.30;;;1.98;;
66429;SDS011;53242;51.694;10.006;2022-11-18T13:23:18;7.40;;;2.63;;
66429;SDS011;53242;51.694;10.006;2022-11-18T13:26:06;9.80;;;3.05;;
66429;SDS011;53242;51.694;10.006;2022-11-18T13:29:05;6.70;;;2.30;;
66429;SDS011;53242;51.694;10.006;2022-11-18T13:34:17;7.05;;;2.55;;
66429;SDS011;53242;51.694;10.006;2022-11-18T13:36:42;7.30;;;2.35;;
66429;SDS011;53242;51.694;10.006;2022-11-18T13:39:05;8.45;;;2.50;;
66429;SDS011;53242;51.694;10.006;2022-11-18T13:41:29;7.60;;;2.05;;
66429;SDS011;53242;51.694;10.006;2022-11-18T13:43:53;7.95;;;2.00;;
66429;SDS011;53242;51.694;10.006;2022-11-18T13:46:17;4.68;;;1.70;;
66429;SDS011;53242;51.694;10.006;2022-11-18T13:48:45;6.72;;;2.22;;
66429;SDS011;53242;51.694;10.006;2022-11-18T13:51:14;7.28;;;2.40;;
66429;SDS011;53242;51.694;10.006;2022-11-18T13:53:37;6.80;;;2.20;;
66429;SDS011;53242;51.694;10.006;2022-11-18T13:56:05;8.50;;;2.38;;
66429;SDS011;53242;51.694;10.006;2022-11-18T14:01:04;5.85;;;1.90;;
66429;SDS011;53242;51.694;10.006;2022-11-18T14:08:51;5.45;;;1.63;;
66429;SDS011;53242;51.694;10.006;2022-11-18T14:11:40;5.32;;;2.10;;
66429;SDS011;53242;51.694;10.006;2022-11-18T14:14:33;4.18;;;1.30;;
66429;SDS011;53242;51.694;10.006;2022-11-18T14:17:04;5.75;;;1.88;;
66429;SDS011;53242;51.694;10.006;2022-11-18T14:19:38;4.75;;;1.45;;
66429;SDS011;53242;51.694;10.006;2022-11-18T14:22:05;5.13;;;1.50;;
66429;SDS011;53242;51.694;10.006;2022-11-18T14:24:32;5.43;;;1.85;;
66429;SDS011;53242;51.694;10.006;2022-11-18T14:26:55;2.97;;;1.00;;
66429;SDS011;53242;51.694;10.006;2022-11-18T14:29:18;4.75;;;1.20;;
66429;SDS011;53242;51.694;10.006;2022-11-18T14:31:44;5.53;;;1.83;;
66429;SDS011;53242;51.694;10.006;2022-11-18T14:34:15;3.65;;;1.33;;
66429;SDS011;53242;51.694;10.006;2022-11-18T14:36:40;5.13;;;1.70;;
66429;SDS011;53242;51.694;10.006;2022-11-18T14:39:10;3.22;;;1.08;;
66429;SDS011;53242;51.694;10.006;2022-11-18T14:41:34;4.75;;;1.58;;
66429;SDS011;53242;51.694;10.006;2022-11-18T14:44:09;4.45;;;1.67;;
66429;SDS011;53242;51.694;10.006;2022-11-18T14:46:31;4.45;;;1.50;;
66429;SDS011;53242;51.694;10.006;2022-11-18T14:48:54;2.95;;;0.95;;
66429;SDS011;53242;51.694;10.006;2022-11-18T14:51:17;3.20;;;0.77;;
66429;SDS011;53242;51.694;10.006;2022-11-18T14:53:40;5.28;;;2.03;;
66429;SDS011;53242;51.694;10.006;2022-11-18T14:56:07;17.95;;;5.45;;
66429;SDS011;53242;51.694;10.006;2022-11-18T14:58:34;10.30;;;3.90;;
66429;SDS011;53242;51.694;10.006;2022-11-18T15:00:57;30.83;;;11.30;;
66429;SDS011;53242;51.694;10.006;2022-11-18T15:03:19;4.88;;;1.40;;
66429;SDS011;53242;51.694;10.006;2022-11-18T15:05:41;3.88;;;1.27;;
66429;SDS011;53242;51.694;10.006;2022-11-18T15:08:04;10.95;;;4.65;;
66429;SDS011;53242;51.694;10.006;2022-11-18T15:10:26;6.55;;;2.28;;
66429;SDS011;53242;51.694;10.006;2022-11-18T15:12:49;3.72;;;1.70;;
66429;SDS011;53242;51.694;10.006;2022-11-18T15:15:12;5.97;;;1.70;;
66429;SDS011;53242;51.694;10.006;2022-11-18T15:17:34;3.35;;;1.00;;
66429;SDS011;53242;51.694;10.006;2022-11-18T15:19:57;4.28;;;1.48;;
66429;SDS011;53242;51.694;10.006;2022-11-18T15:22:19;9.73;;;2.42;;
66429;SDS011;53242;51.694;10.006;2022-11-18T15:24:42;5.65;;;1.65;;
66429;SDS011;53242;51.694;10.006;2022-11-18T15:27:04;1.58;;;0.50;;
66429;SDS011;53242;51.694;10.006;2022-11-18T15:29:26;5.20;;;1.92;;
66429;SDS011;53242;51.694;10.006;2022-11-18T15:31:49;4.65;;;1.63;;
66429;SDS011;53242;51.694;10.006;2022-11-18T15:34:12;3.45;;;1.20;;
66429;SDS011;53242;51.694;10.006;2022-11-18T15:36:36;6.35;;;1.65;;
66429;SDS011;53242;51.694;10.006;2022-11-18T15:38:58;4.25;;;1.52;;
66429;SDS011;53242;51.694;10.006;2022-11-18T15:41:27;8.40;;;2.30;;
66429;SDS011;53242;51.694;10.006;2022-11-18T15:43:51;3.63;;;1.23;;
66429;SDS011;53242;51.694;10.006;2022-11-18T15:46:16;9.02;;;3.20;;
66429;SDS011;53242;51.694;10.006;2022-11-18T15:48:42;4.10;;;1.60;;
66429;SDS011;53242;51.694;10.006;2022-11-18T15:51:04;3.67;;;1.40;;
66429;SDS011;53242;51.694;10.006;2022-11-18T15:53:27;3.25;;;1.30;;
66429;SDS011;53242;51.694;10.006;2022-11-18T15:55:49;4.18;;;1.38;;
66429;SDS011;53242;51.694;10.006;2022-11-18T15:58:12;3.97;;;1.45;;
66429;SDS011;53242;51.694;10.006;2022-11-18T16:00:34;4.45;;;1.58;;